Terminal Aerodrome Forecast
Issued by NWS Jacksonville, FL

Home | Current Version | Previous Version | Text Only | Print | Product List | Glossary On
Versions: 1 2 3 4 5 6 7 8 9 10 11 12 13 14 15 16 17 18 19 20 21 22 23 24 25 26 27
841
FTUS42 KJAX 231312 AAA
TAFSSI
TAF AMD
KSSI 231312Z 2313/2412 03012KT 6SM -RA BR BKN025 BKN100
     FM231400 04012G20KT 2SM +RA BR SCT005 BKN015 OVC030
      TEMPO 2314/2318 BKN005
     FM232300 01012G20KT 5SM -RA BR SCT005 BKN009 OVC015=

USA.gov is the U.S. government's official web portal to all federal, state and local government web resources and services.